Time;durP1;ratioP1;P1;durP2;ratioP2;P2;SDS_P1;SDS_P2;PMS_P1;PMS_P2;Temp;Humidity;BMP_temperature;BMP_pressure;BME280_temperature;BME280_humidity;BME280_pressure;Samples;Min_cycle;Max_cycle;Signal;HPM_P1;HPM_P2
2021/05/06 00:33:04;;;;;;;1.80;1.70;;;11.40;56.20;;;;;;4743231;30;20036;-88
2021/05/06 00:35:33;;;;;;;2.00;1.75;;;11.40;56.30;;;;;;4757331;30;20055;-88
2021/05/06 00:38:08;;;;;;;2.13;1.80;;;11.30;56.30;;;;;;4756977;30;20119;-87
2021/05/06 00:41:38;;;;;;;2.03;1.80;;;11.30;56.30;;;;;;4743013;30;20044;-88
2021/05/06 00:46:34;;;;;;;1.98;1.73;;;11.30;56.40;;;;;;4756431;30;20076;-88
2021/05/06 01:13:28;;;;;;;2.20;1.80;;;11.10;56.70;;;;;;4758939;30;20505;-88
2021/05/06 01:15:53;;;;;;;3.47;2.33;;;11.10;56.80;;;;;;4764447;30;20063;-88
2021/05/06 01:18:19;;;;;;;2.75;2.03;;;11.10;56.80;;;;;;4759424;30;20036;-88
2021/05/06 01:20:50;;;;;;;3.03;2.22;;;11.10;56.90;;;;;;4741626;30;20068;-88
2021/05/06 01:23:20;;;;;;;2.97;2.28;;;11.10;56.90;;;;;;4726214;30;20032;-89
2021/05/06 01:28:46;;;;;;;3.22;2.35;;;11.00;56.90;;;;;;4751379;30;20060;-90
2021/05/06 01:31:18;;;;;;;2.28;2.08;;;11.00;56.90;;;;;;4724612;30;20066;-90
2021/05/06 01:33:49;;;;;;;2.50;2.10;;;11.00;57.00;;;;;;4752372;30;20508;-90
2021/05/06 01:36:19;;;;;;;3.60;2.47;;;11.00;57.00;;;;;;4763577;30;20066;-90
2021/05/06 01:44:15;;;;;;;2.58;2.17;;;10.90;57.10;;;;;;4754276;30;20084;-88
2021/05/06 02:00:32;;;;;;;3.22;2.28;;;10.80;57.90;;;;;;4738946;30;20496;-88
2021/05/06 02:03:08;;;;;;;2.95;2.35;;;10.80;57.30;;;;;;4754847;30;20064;-87
2021/05/06 02:05:38;;;;;;;2.40;2.15;;;10.80;57.40;;;;;;4741053;30;20040;-87
2021/05/06 02:08:04;;;;;;;2.78;2.20;;;10.70;57.40;;;;;;4751031;30;20032;-86
2021/05/06 02:10:36;;;;;;;2.72;2.17;;;10.70;57.50;;;;;;4742264;30;20044;-87
2021/05/06 02:13:03;;;;;;;3.08;2.53;;;10.70;57.50;;;;;;4739691;30;20036;-90
2021/05/06 02:15:40;;;;;;;2.80;2.40;;;10.70;57.50;;;;;;4759286;30;20055;-88
2021/05/06 02:18:07;;;;;;;2.95;2.47;;;10.70;57.60;;;;;;4743332;30;20120;-88
2021/05/06 02:20:41;;;;;;;2.70;2.50;;;10.70;57.60;;;;;;4754376;30;20036;-87
2021/05/06 02:23:08;;;;;;;2.80;2.40;;;10.60;57.60;;;;;;4758503;30;20039;-89
2021/05/06 02:25:35;;;;;;;2.90;2.20;;;10.70;57.70;;;;;;4740548;30;20039;-87
2021/05/06 02:28:01;;;;;;;3.83;2.60;;;10.70;57.70;;;;;;4726013;30;20105;-88
2021/05/06 02:30:30;;;;;;;2.67;2.20;;;10.60;57.70;;;;;;4754921;30;20090;-88
2021/05/06 02:32:56;;;;;;;3.10;2.53;;;10.60;57.70;;;;;;4744037;30;20028;-88
2021/05/06 02:35:22;;;;;;;3.03;2.50;;;10.60;57.70;;;;;;4754265;30;20028;-89
2021/05/06 02:37:47;;;;;;;2.78;2.30;;;10.60;57.70;;;;;;4740882;30;20036;-88
2021/05/06 02:40:14;;;;;;;3.58;2.65;;;10.60;57.80;;;;;;4743001;30;20047;-88
2021/05/06 02:42:40;;;;;;;3.35;2.42;;;10.60;57.80;;;;;;4754485;30;20036;-90
2021/05/06 02:45:10;;;;;;;2.72;2.30;;;10.60;57.80;;;;;;4758698;30;20502;-90
2021/05/06 02:47:36;;;;;;;3.15;2.25;;;10.50;57.80;;;;;;4764095;30;20032;-88
2021/05/06 02:50:04;;;;;;;3.58;2.50;;;10.50;57.90;;;;;;4724813;30;20041;-87
2021/05/06 02:55:25;;;;;;;2.58;2.10;;;10.50;57.90;;;;;;4755329;30;20044;-88
2021/05/06 02:58:03;;;;;;;2.30;2.10;;;10.50;57.90;;;;;;4754255;30;20044;-88
2021/05/06 03:03:14;;;;;;;2.28;2.00;;;10.40;58.60;;;;;;4752195;30;20060;-88
2021/05/06 03:05:40;;;;;;;2.25;2.00;;;10.40;57.90;;;;;;4740050;30;20060;-88
2021/05/06 03:08:23;;;;;;;2.60;2.20;;;10.40;58.00;;;;;;4740139;30;20401;-88
2021/05/06 03:11:05;;;;;;;2.63;2.20;;;10.40;58.10;;;;;;4728924;30;20033;-88
2021/05/06 03:24:32;;;;;;;2.20;1.77;;;10.30;58.10;;;;;;4739197;30;20040;-88
2021/05/06 03:26:59;;;;;;;2.03;1.83;;;10.30;58.20;;;;;;4758769;30;20039;-88
2021/05/06 03:32:20;;;;;;;2.40;1.95;;;10.30;58.30;;;;;;4754585;30;20032;-88
2021/05/06 03:35:41;;;;;;;2.75;2.20;;;10.20;58.20;;;;;;4756308;30;20047;-89
2021/05/06 04:03:12;;;;;;;3.10;2.25;;;10.10;58.30;;;;;;4767274;30;20046;-88
2021/05/06 04:15:35;;;;;;;2.85;2.30;;;9.80;59.00;;;;;;4765499;30;20124;-88
2021/05/06 04:18:27;;;;;;;3.90;2.80;;;9.80;58.40;;;;;;4757770;30;20093;-90
2021/05/06 04:21:41;;;;;;;3.28;2.55;;;9.80;58.50;;;;;;4763690;30;20044;-89
2021/05/06 04:26:32;;;;;;;3.75;2.95;;;9.70;58.40;;;;;;4757193;30;20044;-89
2021/05/06 04:37:14;;;;;;;3.72;3.00;;;9.70;58.50;;;;;;4758928;30;20116;-89
2021/05/06 04:39:53;;;;;;;3.40;2.78;;;9.60;58.40;;;;;;4728353;30;20071;-90
2021/05/06 04:42:51;;;;;;;3.88;2.90;;;9.60;58.60;;;;;;4756892;30;20176;-89
2021/05/06 04:55:59;;;;;;;4.13;3.15;;;9.50;58.70;;;;;;4758415;30;20036;-91
2021/05/06 05:04:23;;;;;;;4.30;3.42;;;9.50;58.80;;;;;;4749371;30;20052;-90
2021/05/06 05:06:56;;;;;;;4.28;2.88;;;9.50;58.80;;;;;;4732251;30;20481;-90
2021/05/06 05:09:42;;;;;;;3.97;3.03;;;9.50;58.80;;;;;;4731194;30;20032;-91
2021/05/06 05:20:37;;;;;;;4.07;2.97;;;9.40;58.90;;;;;;4743002;30;20036;-82
2021/05/06 05:25:59;;;;;;;4.60;3.35;;;9.40;59.00;;;;;;4744938;30;20042;-89
2021/05/06 05:28:24;;;;;;;3.60;3.08;;;9.40;59.00;;;;;;4749141;30;20045;-88
2021/05/06 05:30:50;;;;;;;4.60;3.60;;;9.40;59.10;;;;;;4754339;30;20496;-90
2021/05/06 05:33:21;;;;;;;4.18;3.25;;;9.40;59.10;;;;;;4742537;30;20058;-91
2021/05/06 05:36:01;;;;;;;5.18;3.60;;;9.40;59.20;;;;;;4756401;30;20079;-89
2021/05/06 05:41:57;;;;;;;4.65;3.40;;;9.40;59.20;;;;;;4762294;30;20094;-91
2021/05/06 05:56:53;;;;;;;4.80;3.30;;;9.40;59.30;;;;;;4741517;30;20044;-88
2021/05/06 05:59:19;;;;;;;4.88;3.72;;;9.40;59.40;;;;;;4742093;30;20051;-90
2021/05/06 06:01:45;;;;;;;5.20;4.15;;;9.40;59.40;;;;;;4757188;30;20031;-88
2021/05/06 06:04:14;;;;;;;5.57;4.07;;;9.40;59.40;;;;;;4769645;30;20052;-90
2021/05/06 06:06:40;;;;;;;4.82;3.90;;;9.40;59.50;;;;;;4756401;30;20319;-88
2021/05/06 06:09:06;;;;;;;5.97;4.50;;;9.40;59.40;;;;;;4757910;30;20032;-89
2021/05/06 06:11:33;;;;;;;5.70;4.28;;;9.40;59.40;;;;;;4744937;30;20390;-88
2021/05/06 06:14:05;;;;;;;6.07;4.60;;;9.40;59.40;;;;;;4756893;30;20052;-89
2021/05/06 06:16:35;;;;;;;4.85;3.95;;;9.40;59.50;;;;;;4756387;30;20045;-90
2021/05/06 06:19:02;;;;;;;5.53;4.43;;;9.40;59.50;;;;;;4741887;30;20028;-90
2021/05/06 06:24:03;;;;;;;5.68;4.53;;;9.40;59.50;;;;;;4776251;30;20064;-92
2021/05/06 06:26:29;;;;;;;6.28;4.63;;;9.40;59.50;;;;;;4742710;30;20044;-89
2021/05/06 06:29:05;;;;;;;5.78;4.07;;;9.40;59.50;;;;;;4754618;30;20031;-90
2021/05/06 06:31:40;;;;;;;6.00;4.40;;;9.40;59.50;;;;;;4730605;30;20037;-90
2021/05/06 06:34:09;;;;;;;5.40;4.45;;;9.50;59.60;;;;;;4757081;30;20347;-90
2021/05/06 06:36:39;;;;;;;6.20;4.50;;;9.50;59.60;;;;;;4752822;30;20044;-92
2021/05/06 06:39:06;;;;;;;5.95;4.28;;;9.50;59.60;;;;;;4767921;30;20032;-89
2021/05/06 06:41:32;;;;;;;6.22;5.03;;;9.50;59.60;;;;;;4742730;30;20041;-89
2021/05/06 06:44:00;;;;;;;5.82;4.90;;;9.50;59.60;;;;;;4761253;30;20060;-91
2021/05/06 06:46:26;;;;;;;6.25;4.57;;;9.50;60.20;;;;;;4743025;30;20043;-89
2021/05/06 06:48:52;;;;;;;5.97;4.68;;;9.60;59.60;;;;;;4762001;30;20058;-89
2021/05/06 06:51:24;;;;;;;6.25;4.85;;;9.60;59.60;;;;;;4768766;30;20493;-88
2021/05/06 06:53:51;;;;;;;5.43;4.50;;;9.60;59.60;;;;;;4754535;30;20486;-80
2021/05/06 06:56:19;;;;;;;6.00;4.60;;;9.60;59.70;;;;;;4753843;30;20042;-82
2021/05/06 06:58:49;;;;;;;6.63;5.25;;;9.60;59.70;;;;;;4740686;30;20112;-91
2021/05/06 07:01:16;;;;;;;6.07;4.72;;;9.60;59.60;;;;;;4756651;30;20088;-85
2021/05/06 07:03:44;;;;;;;6.22;4.93;;;9.70;59.70;;;;;;4741006;30;20131;-88
2021/05/06 07:06:11;;;;;;;6.05;4.78;;;9.70;59.70;;;;;;4741327;30;20115;-92
2021/05/06 07:08:38;;;;;;;6.40;5.28;;;9.70;59.70;;;;;;4740778;30;20028;-86
2021/05/06 07:11:06;;;;;;;5.75;4.97;;;9.70;59.70;;;;;;4739624;30;20043;-88
2021/05/06 07:13:32;;;;;;;6.78;4.97;;;9.80;59.80;;;;;;4753753;30;20039;-89
2021/05/06 07:16:01;;;;;;;6.53;5.07;;;9.80;59.80;;;;;;4760593;30;20059;-93
2021/05/06 07:18:28;;;;;;;5.63;4.45;;;9.80;59.80;;;;;;4752538;30;20075;-87
2021/05/06 07:20:54;;;;;;;5.90;4.70;;;9.80;59.80;;;;;;4721680;30;20059;-84
2021/05/06 07:23:22;;;;;;;5.80;4.78;;;9.90;59.80;;;;;;4754386;30;20060;-83
2021/05/06 07:25:51;;;;;;;5.93;4.47;;;9.90;59.80;;;;;;4753567;30;20054;-88
2021/05/06 07:28:38;;;;;;;6.43;5.03;;;9.90;59.70;;;;;;4745312;30;20486;-88
2021/05/06 07:31:08;;;;;;;5.43;4.50;;;9.90;59.70;;;;;;4755404;30;20040;-86
2021/05/06 07:33:34;;;;;;;5.97;4.97;;;10.00;59.80;;;;;;4731061;30;20036;-89
2021/05/06 07:36:01;;;;;;;5.25;4.40;;;10.00;59.70;;;;;;4741018;30;20036;-87
2021/05/06 07:38:30;;;;;;;5.18;4.35;;;10.00;59.80;;;;;;4727290;30;20028;-89
2021/05/06 07:40:58;;;;;;;5.65;4.65;;;10.10;59.80;;;;;;4753048;30;20039;-89
2021/05/06 07:43:24;;;;;;;5.32;4.22;;;10.10;59.70;;;;;;4755843;30;20493;-89
2021/05/06 07:45:50;;;;;;;5.22;3.90;;;10.10;59.70;;;;;;4766102;30;20023;-88
2021/05/06 07:48:16;;;;;;;5.55;4.15;;;10.10;59.80;;;;;;4742731;30;20040;-88
2021/05/06 07:50:42;;;;;;;5.68;4.40;;;10.20;59.70;;;;;;4752041;30;20096;-88
2021/05/06 07:53:12;;;;;;;5.43;4.40;;;10.20;59.70;;;;;;4736665;30;20024;-86
2021/05/06 07:55:38;;;;;;;5.90;4.28;;;10.20;59.70;;;;;;4753473;30;20096;-84
2021/05/06 07:58:08;;;;;;;4.78;3.78;;;10.30;59.70;;;;;;4736776;30;20467;-83
2021/05/06 08:00:35;;;;;;;5.72;4.35;;;10.30;59.70;;;;;;4753281;30;20071;-82
2021/05/06 08:03:07;;;;;;;5.13;4.15;;;10.30;59.70;;;;;;4736661;30;20059;-83
2021/05/06 08:05:35;;;;;;;4.57;3.88;;;10.40;59.70;;;;;;4752332;30;20048;-83
2021/05/06 08:08:00;;;;;;;5.00;3.97;;;10.40;59.70;;;;;;4736042;30;20046;-83
2021/05/06 08:10:27;;;;;;;4.88;3.78;;;10.40;59.60;;;;;;4747054;30;20498;-82
2021/05/06 08:12:56;;;;;;;4.95;3.78;;;10.50;59.70;;;;;;4750502;30;20036;-83
2021/05/06 08:15:23;;;;;;;4.45;3.65;;;10.50;59.60;;;;;;4737259;30;20087;-82
2021/05/06 08:17:53;;;;;;;4.47;3.45;;;10.60;59.60;;;;;;4739019;30;20059;-82
2021/05/06 08:20:20;;;;;;;5.20;3.88;;;10.60;59.60;;;;;;4737829;30;20052;-82
2021/05/06 08:22:46;;;;;;;4.78;3.50;;;10.70;59.60;;;;;;4756224;30;20024;-81
2021/05/06 08:25:14;;;;;;;4.43;3.50;;;10.70;59.50;;;;;;4738983;30;20602;-82
2021/05/06 08:27:41;;;;;;;4.32;3.40;;;10.70;59.50;;;;;;4755399;30;20033;-82
2021/05/06 08:30:09;;;;;;;4.88;3.58;;;10.80;59.40;;;;;;4734501;30;20033;-82
2021/05/06 08:32:38;;;;;;;4.90;3.38;;;10.80;59.40;;;;;;4763679;30;20063;-82
2021/05/06 08:35:07;;;;;;;4.00;3.10;;;10.90;59.40;;;;;;4766159;30;20028;-82
2021/05/06 08:37:33;;;;;;;4.65;3.40;;;10.90;59.30;;;;;;4736730;30;20060;-83
2021/05/06 08:40:01;;;;;;;3.83;3.00;;;11.00;59.30;;;;;;4767913;30;20036;-83
2021/05/06 08:42:31;;;;;;;4.07;3.15;;;11.00;59.20;;;;;;4754149;30;20056;-82
2021/05/06 08:44:57;;;;;;;4.50;3.08;;;11.10;59.20;;;;;;4752768;30;20032;-82
2021/05/06 08:47:23;;;;;;;4.90;3.63;;;11.10;59.10;;;;;;4741368;30;20051;-82
2021/05/06 08:49:50;;;;;;;4.78;3.33;;;11.20;59.10;;;;;;4754231;30;20074;-85
2021/05/06 08:52:21;;;;;;;4.20;3.20;;;11.20;59.10;;;;;;4738798;30;20044;-81
2021/05/06 08:54:52;;;;;;;4.30;3.17;;;11.30;59.00;;;;;;4753276;30;20028;-82
2021/05/06 08:57:22;;;;;;;4.47;3.15;;;11.30;59.00;;;;;;4753813;30;20106;-81
2021/05/06 08:59:49;;;;;;;3.75;2.95;;;11.30;58.90;;;;;;4767506;30;20051;-80
2021/05/06 09:02:15;;;;;;;3.95;2.80;;;11.40;58.90;;;;;;4739352;30;21233;-81
2021/05/06 09:04:41;;;;;;;4.25;3.05;;;11.40;58.80;;;;;;4738037;30;20052;-80
2021/05/06 09:07:09;;;;;;;4.10;2.92;;;11.50;58.80;;;;;;4752249;30;20451;-80
2021/05/06 09:09:35;;;;;;;3.70;2.95;;;11.60;58.80;;;;;;4753052;30;20356;-81
2021/05/06 09:12:08;;;;;;;4.80;3.15;;;11.60;58.70;;;;;;4748664;30;20053;-79
2021/05/06 09:14:51;;;;;;;3.50;2.78;;;11.70;58.70;;;;;;4752760;30;20044;-80
2021/05/06 09:17:30;;;;;;;4.40;3.00;;;11.80;58.70;;;;;;4752980;30;20047;-81
2021/05/06 09:20:17;;;;;;;4.28;2.90;;;11.80;58.60;;;;;;4752943;30;20112;-81
2021/05/06 09:22:47;;;;;;;4.00;3.00;;;11.90;58.60;;;;;;4749624;30;20044;-80
2021/05/06 09:25:26;;;;;;;3.50;2.90;;;11.90;58.40;;;;;;4749394;30;20454;-82
2021/05/06 09:28:16;;;;;;;4.18;2.90;;;12.00;58.50;;;;;;4739215;30;20375;-87
2021/05/06 09:30:54;;;;;;;3.58;2.63;;;12.00;58.40;;;;;;4764565;30;20051;-85
2021/05/06 09:33:38;;;;;;;3.85;3.00;;;12.10;58.30;;;;;;4765478;30;20025;-81
2021/05/06 09:36:17;;;;;;;4.22;3.10;;;12.20;58.40;;;;;;4757447;30;20398;-84
2021/05/06 09:38:44;;;;;;;3.83;2.72;;;12.20;58.20;;;;;;4750507;30;20055;-84
2021/05/06 09:41:15;;;;;;;3.63;2.75;;;12.30;58.10;;;;;;4759123;30;20040;-84
2021/05/06 09:43:43;;;;;;;4.15;2.85;;;12.40;58.10;;;;;;4756686;30;20032;-83
2021/05/06 09:46:37;;;;;;;3.33;2.72;;;12.40;58.10;;;;;;4757464;30;20029;-84
2021/05/06 09:49:03;;;;;;;4.10;2.90;;;12.60;58.20;;;;;;4764153;30;20043;-84
2021/05/06 09:51:50;;;;;;;3.35;2.67;;;12.60;58.00;;;;;;4756002;30;20028;-83
2021/05/06 09:54:20;;;;;;;3.25;2.67;;;12.70;58.00;;;;;;4756440;30;20029;-84
2021/05/06 09:57:01;;;;;;;3.80;3.00;;;12.80;57.90;;;;;;4757133;30;20028;-84
2021/05/06 09:59:30;;;;;;;3.78;2.88;;;12.90;57.90;;;;;;4756116;30;20494;-85
2021/05/06 10:02:18;;;;;;;4.15;3.05;;;13.00;57.80;;;;;;4726946;30;20069;-85
2021/05/06 10:04:46;;;;;;;3.13;2.40;;;13.00;57.80;;;;;;4767696;30;20055;-84
2021/05/06 10:07:20;;;;;;;3.42;2.83;;;13.10;57.60;;;;;;4768962;30;20032;-86
2021/05/06 10:09:58;;;;;;;3.20;2.45;;;13.20;57.60;;;;;;4741921;30;20097;-85
2021/05/06 10:12:37;;;;;;;3.45;2.72;;;13.30;57.50;;;;;;4752849;30;20032;-85
2021/05/06 10:15:08;;;;;;;3.10;2.60;;;13.40;57.50;;;;;;4762677;30;20109;-84
2021/05/06 10:17:34;;;;;;;3.20;2.58;;;13.50;57.50;;;;;;4770677;30;20036;-84
2021/05/06 10:20:00;;;;;;;3.85;2.85;;;13.60;57.50;;;;;;4725805;30;20386;-90
2021/05/06 10:22:29;;;;;;;4.15;2.80;;;13.60;57.30;;;;;;4749627;30;20084;-89
2021/05/06 10:24:55;;;;;;;3.20;2.65;;;13.70;57.30;;;;;;4754829;30;20032;-85
2021/05/06 10:27:26;;;;;;;4.50;3.13;;;13.80;57.30;;;;;;4752055;30;20051;-83
2021/05/06 10:29:56;;;;;;;4.10;2.92;;;13.80;57.20;;;;;;4737536;30;20123;-87
2021/05/06 10:32:26;;;;;;;4.00;3.00;;;13.90;57.20;;;;;;4752514;30;20093;-85
2021/05/06 10:34:56;;;;;;;3.58;2.80;;;14.00;57.10;;;;;;4752689;30;20028;-87
2021/05/06 10:37:28;;;;;;;4.03;3.10;;;14.10;57.10;;;;;;4738428;30;20469;-87
2021/05/06 10:39:54;;;;;;;4.03;2.60;;;14.20;57.00;;;;;;4753493;30;20063;-87
2021/05/06 10:42:26;;;;;;;4.05;3.20;;;14.20;56.90;;;;;;4753393;30;20082;-89
2021/05/06 10:44:53;;;;;;;3.78;2.90;;;14.30;56.90;;;;;;4752741;30;20123;-87
2021/05/06 10:47:38;;;;;;;4.07;2.92;;;14.40;56.80;;;;;;4753342;30;20048;-90
2021/05/06 10:50:16;;;;;;;4.00;2.97;;;14.50;56.80;;;;;;4765324;30;20048;-88
2021/05/06 10:52:49;;;;;;;3.88;2.95;;;14.50;56.60;;;;;;4752436;30;20029;-83
2021/05/06 10:55:35;;;;;;;4.07;2.88;;;14.60;56.50;;;;;;4750962;30;20683;-86
2021/05/06 10:58:27;;;;;;;3.97;2.85;;;14.70;56.40;;;;;;4750291;30;20409;-86
2021/05/06 11:01:03;;;;;;;3.85;2.78;;;14.70;56.40;;;;;;4752231;30;20034;-86
2021/05/06 11:03:32;;;;;;;4.45;3.30;;;14.80;56.30;;;;;;4764518;30;20497;-87
2021/05/06 11:05:58;;;;;;;3.75;2.88;;;14.80;56.20;;;;;;4726653;30;20060;-87
2021/05/06 11:08:32;;;;;;;4.25;3.03;;;14.90;56.20;;;;;;4751914;30;20044;-88
2021/05/06 11:11:01;;;;;;;3.88;2.88;;;15.00;56.30;;;;;;4755296;30;20088;-88
2021/05/06 11:13:29;;;;;;;4.65;2.95;;;15.00;56.30;;;;;;4753153;30;20036;-87
2021/05/06 11:16:16;;;;;;;4.53;3.20;;;15.00;56.20;;;;;;4753026;30;20101;-87
2021/05/06 11:18:44;;;;;;;4.05;3.05;;;15.10;56.30;;;;;;4751684;30;20040;-86
2021/05/06 11:21:33;;;;;;;3.70;2.80;;;15.10;56.10;;;;;;4751645;30;20036;-88
2021/05/06 11:24:28;;;;;;;4.22;3.08;;;15.20;56.30;;;;;;4750971;30;20081;-86
2021/05/06 11:27:02;;;;;;;4.43;2.80;;;15.20;56.20;;;;;;4733262;30;20060;-85
2021/05/06 11:29:29;;;;;;;3.75;2.90;;;15.20;56.10;;;;;;4753710;30;20489;-89
2021/05/06 11:31:55;;;;;;;3.30;2.65;;;15.20;56.00;;;;;;4749408;30;20036;-86
2021/05/06 11:34:37;;;;;;;3.70;2.83;;;15.30;56.10;;;;;;4739788;30;20036;-87
2021/05/06 11:37:27;;;;;;;3.15;2.58;;;15.30;56.10;;;;;;4752677;30;20496;-87
2021/05/06 11:40:05;;;;;;;3.70;2.70;;;15.40;56.20;;;;;;4734751;30;20065;-88
2021/05/06 11:42:37;;;;;;;4.13;2.80;;;15.40;56.10;;;;;;4752246;30;20036;-89
2021/05/06 11:45:10;;;;;;;2.80;2.50;;;15.40;56.00;;;;;;4764839;30;20040;-85
2021/05/06 11:47:37;;;;;;;2.70;2.30;;;15.50;56.00;;;;;;4737815;30;20028;-86
2021/05/06 11:50:33;;;;;;;3.10;2.47;;;15.50;56.00;;;;;;4752205;30;20036;-89
2021/05/06 11:53:01;;;;;;;2.83;2.20;;;15.50;56.00;;;;;;4753303;30;20032;-88
2021/05/06 11:55:34;;;;;;;3.13;2.53;;;15.60;55.80;;;;;;4723642;30;20043;-89
2021/05/06 11:58:00;;;;;;;2.90;2.25;;;15.60;55.80;;;;;;4755892;30;20036;-87
2021/05/06 12:00:28;;;;;;;3.00;2.33;;;15.70;55.80;;;;;;4746578;30;20032;-95
2021/05/06 12:03:01;;;;;;;2.85;2.40;;;15.70;55.70;;;;;;4740843;30;20044;-86
2021/05/06 12:05:48;;;;;;;3.28;2.72;;;15.80;55.70;;;;;;4754733;30;20110;-87
2021/05/06 12:08:15;;;;;;;2.90;2.30;;;15.90;55.80;;;;;;4740214;30;20106;-87
2021/05/06 12:10:41;;;;;;;2.50;2.15;;;15.90;55.60;;;;;;4741000;30;20040;-85
2021/05/06 12:13:08;;;;;;;3.25;2.60;;;15.90;55.60;;;;;;4754926;30;20040;-85
2021/05/06 12:15:34;;;;;;;2.60;2.10;;;15.90;55.60;;;;;;4756303;30;20550;-86
2021/05/06 12:18:22;;;;;;;3.03;2.45;;;16.10;55.60;;;;;;4755316;30;20040;-84
2021/05/06 12:20:58;;;;;;;2.63;2.30;;;16.10;55.60;;;;;;4754474;30;20068;-82
2021/05/06 12:23:25;;;;;;;3.08;2.25;;;16.10;55.50;;;;;;4753889;30;20028;-83
2021/05/06 12:25:51;;;;;;;3.05;2.35;;;16.20;55.40;;;;;;4739091;30;20036;-83
2021/05/06 12:28:17;;;;;;;3.60;2.67;;;16.20;55.40;;;;;;4754329;30;20055;-85
2021/05/06 12:30:44;;;;;;;3.42;2.63;;;16.30;55.40;;;;;;4754352;30;20050;-83
2021/05/06 12:33:10;;;;;;;3.08;2.50;;;16.30;55.40;;;;;;4759550;30;20097;-86
2021/05/06 12:35:52;;;;;;;3.13;2.47;;;16.40;55.30;;;;;;4750892;30;20048;-88
2021/05/06 12:38:18;;;;;;;3.10;2.53;;;16.40;55.30;;;;;;4759676;30;20032;-85
2021/05/06 12:40:44;;;;;;;2.83;2.50;;;16.50;55.20;;;;;;4760108;30;20063;-82
2021/05/06 12:43:31;;;;;;;3.00;2.70;;;16.50;55.20;;;;;;4755067;30;20036;-86
2021/05/06 12:46:01;;;;;;;2.88;2.50;;;16.50;55.20;;;;;;4762814;30;20540;-85
2021/05/06 12:48:39;;;;;;;2.45;2.00;;;16.60;55.10;;;;;;4766997;30;20043;-85
2021/05/06 12:51:07;;;;;;;3.85;2.55;;;16.60;55.10;;;;;;4753485;30;20028;-83
2021/05/06 12:53:33;;;;;;;2.92;2.20;;;16.60;55.00;;;;;;4746921;30;20124;-91
2021/05/06 12:55:59;;;;;;;3.17;2.60;;;16.60;54.90;;;;;;4765035;30;20054;-91
2021/05/06 12:58:30;;;;;;;2.17;1.98;;;16.60;54.80;;;;;;4756046;30;20036;-90
2021/05/06 13:00:56;;;;;;;2.75;2.10;;;16.70;54.80;;;;;;4739117;30;20036;-86
2021/05/06 13:03:38;;;;;;;2.40;2.20;;;16.70;54.70;;;;;;4753603;30;20072;-82
2021/05/06 13:06:11;;;;;;;2.65;2.10;;;16.70;54.70;;;;;;4753390;30;20445;-84
2021/05/06 13:08:42;;;;;;;2.38;2.10;;;16.70;54.50;;;;;;4754022;30;20082;-83
2021/05/06 13:11:09;;;;;;;2.90;2.20;;;16.80;54.60;;;;;;4755092;30;20033;-84
2021/05/06 13:13:42;;;;;;;2.70;2.20;;;16.80;54.50;;;;;;4753764;30;20440;-86
2021/05/06 13:16:10;;;;;;;2.80;2.08;;;16.80;54.90;;;;;;4753965;30;20046;-83
2021/05/06 13:18:36;;;;;;;2.78;2.38;;;16.80;54.40;;;;;;4738723;30;20055;-85
2021/05/06 13:21:04;;;;;;;2.63;2.13;;;16.80;54.30;;;;;;4753812;30;20036;-85
2021/05/06 13:23:34;;;;;;;2.63;2.20;;;16.80;54.30;;;;;;4754629;30;20028;-85
2021/05/06 13:26:02;;;;;;;3.45;2.15;;;16.90;54.40;;;;;;4753639;30;20040;-85
2021/05/06 13:28:28;;;;;;;2.63;2.10;;;16.90;54.40;;;;;;4759925;30;20032;-85
2021/05/06 13:31:05;;;;;;;2.97;2.50;;;16.90;54.30;;;;;;4738129;30;20718;-80
2021/05/06 13:33:30;;;;;;;2.72;2.30;;;16.90;54.30;;;;;;4752879;30;20115;-82
2021/05/06 13:36:10;;;;;;;2.47;2.17;;;17.00;54.30;;;;;;4735446;30;20122;-82
2021/05/06 13:38:48;;;;;;;2.28;2.05;;;17.00;54.30;;;;;;4763259;30;20043;-85
2021/05/06 13:41:14;;;;;;;2.63;2.22;;;17.00;54.30;;;;;;4744597;30;20028;-85
2021/05/06 13:43:41;;;;;;;3.03;2.40;;;17.00;54.20;;;;;;4749001;30;20033;-86
2021/05/06 13:46:14;;;;;;;3.15;2.45;;;17.00;54.20;;;;;;4751016;30;20483;-86
2021/05/06 13:48:40;;;;;;;3.80;2.65;;;17.10;54.20;;;;;;4752306;30;20139;-85
2021/05/06 13:51:11;;;;;;;3.28;2.47;;;17.10;54.10;;;;;;4733491;30;20100;-85
2021/05/06 13:53:38;;;;;;;2.90;2.35;;;17.10;54.00;;;;;;4748322;30;20040;-86
2021/05/06 13:56:08;;;;;;;3.63;2.67;;;17.10;54.00;;;;;;4761943;30;20135;-88
2021/05/06 13:58:35;;;;;;;3.33;2.50;;;17.10;53.90;;;;;;4751269;30;20047;-86
2021/05/06 14:01:02;;;;;;;3.45;2.78;;;17.10;53.90;;;;;;4736146;30;20127;-86
2021/05/06 14:03:28;;;;;;;3.28;2.53;;;17.10;53.80;;;;;;4722282;30;20044;-87
2021/05/06 14:05:54;;;;;;;3.33;2.47;;;17.20;53.80;;;;;;4721638;30;20100;-87
2021/05/06 14:08:21;;;;;;;2.83;2.33;;;17.20;53.80;;;;;;4736527;30;20428;-85
2021/05/06 14:10:47;;;;;;;3.70;2.70;;;17.20;53.80;;;;;;4724072;30;20439;-86
2021/05/06 14:13:15;;;;;;;3.30;2.67;;;17.20;53.70;;;;;;4757604;30;20024;-86
2021/05/06 14:15:41;;;;;;;3.60;2.67;;;17.20;53.70;;;;;;4736118;30;20055;-85
2021/05/06 14:18:07;;;;;;;2.83;2.50;;;17.20;53.70;;;;;;4731769;30;20097;-86
2021/05/06 14:20:34;;;;;;;3.10;2.47;;;17.20;53.70;;;;;;4752049;30;20122;-86
2021/05/06 14:23:00;;;;;;;2.92;2.55;;;17.20;53.70;;;;;;4752749;30;20102;-86
2021/05/06 14:25:26;;;;;;;3.15;2.45;;;17.30;53.70;;;;;;4726314;30;20049;-88
2021/05/06 14:27:52;;;;;;;3.33;2.78;;;17.20;53.60;;;;;;4753524;30;20085;-91
2021/05/06 14:30:18;;;;;;;2.80;2.42;;;17.30;53.70;;;;;;4769171;30;20077;-87
2021/05/06 14:32:44;;;;;;;3.15;2.60;;;17.30;53.60;;;;;;4751923;30;20036;-87
2021/05/06 14:35:10;;;;;;;3.03;2.55;;;17.20;53.60;;;;;;4732705;30;20137;-85
2021/05/06 14:37:36;;;;;;;3.70;2.60;;;17.20;53.50;;;;;;4736122;30;20056;-87
2021/05/06 14:40:04;;;;;;;3.55;2.88;;;17.20;53.50;;;;;;4735890;30;20438;-85
2021/05/06 14:42:29;;;;;;;4.07;2.80;;;17.20;53.50;;;;;;4751438;30;20040;-89
2021/05/06 14:44:55;;;;;;;3.22;2.60;;;17.20;53.50;;;;;;4749942;30;20055;-87
2021/05/06 14:47:21;;;;;;;3.67;2.80;;;17.20;53.50;;;;;;4745519;30;20066;-85
2021/05/06 14:49:47;;;;;;;3.85;2.80;;;17.20;53.50;;;;;;4737605;30;20078;-82
2021/05/06 14:52:12;;;;;;;3.22;2.65;;;17.20;53.50;;;;;;4749051;30;20055;-85
2021/05/06 14:54:38;;;;;;;2.80;2.50;;;17.20;53.60;;;;;;4749471;30;20048;-84
2021/05/06 14:57:04;;;;;;;4.35;3.00;;;17.20;53.50;;;;;;4755038;30;20052;-86
2021/05/06 14:59:30;;;;;;;3.97;2.92;;;17.20;53.50;;;;;;4735403;30;20050;-81
2021/05/06 15:01:56;;;;;;;3.70;2.72;;;17.20;53.50;;;;;;4761463;30;20500;-86
2021/05/06 15:04:22;;;;;;;3.90;3.10;;;17.20;53.50;;;;;;4752383;30;20036;-86
2021/05/06 15:06:48;;;;;;;3.25;2.70;;;17.20;53.50;;;;;;4749653;30;20044;-83
2021/05/06 15:09:14;;;;;;;4.10;3.17;;;17.20;53.50;;;;;;4734299;30;20124;-83
2021/05/06 15:11:40;;;;;;;5.78;3.20;;;17.20;53.50;;;;;;4735266;30;20143;-84
2021/05/06 15:14:06;;;;;;;4.07;3.17;;;17.20;53.50;;;;;;4755509;30;20036;-87
2021/05/06 15:16:32;;;;;;;3.78;3.15;;;17.20;53.50;;;;;;4737292;30;20059;-86
2021/05/06 15:18:58;;;;;;;3.92;3.15;;;17.20;53.50;;;;;;4732427;30;20385;-84
2021/05/06 15:21:24;;;;;;;4.03;3.05;;;17.20;53.40;;;;;;4735939;30;20048;-85
2021/05/06 15:23:50;;;;;;;3.85;3.10;;;17.20;53.40;;;;;;4733922;30;20498;-85
2021/05/06 15:26:15;;;;;;;3.85;3.03;;;17.20;53.30;;;;;;4733850;30;20589;-85
2021/05/06 15:28:41;;;;;;;4.07;3.35;;;17.20;53.30;;;;;;4751065;30;20043;-85
2021/05/06 15:31:07;;;;;;;3.55;3.03;;;17.20;53.30;;;;;;4753594;30;20059;-86
2021/05/06 15:33:33;;;;;;;4.43;3.20;;;17.20;53.30;;;;;;4753977;30;20044;-85
2021/05/06 15:35:59;;;;;;;3.25;2.60;;;17.20;53.30;;;;;;4738519;30;20056;-86
2021/05/06 15:38:24;;;;;;;3.92;3.08;;;17.20;53.30;;;;;;4735621;30;20098;-86
2021/05/06 15:40:51;;;;;;;3.63;3.00;;;17.20;53.30;;;;;;4750174;29;20440;-86
2021/05/06 15:43:19;;;;;;;3.72;2.95;;;17.20;53.30;;;;;;4725817;30;20028;-86
2021/05/06 15:45:45;;;;;;;4.07;3.30;;;17.20;53.30;;;;;;4754010;30;20040;-86
2021/05/06 15:48:12;;;;;;;3.88;2.90;;;17.20;53.20;;;;;;4766607;30;20032;-85
2021/05/06 15:50:39;;;;;;;4.28;3.03;;;17.20;53.20;;;;;;4753618;30;20036;-83
2021/05/06 15:53:05;;;;;;;3.95;2.80;;;17.20;53.20;;;;;;4738127;30;20494;-85
2021/05/06 15:55:33;;;;;;;3.60;3.08;;;17.20;53.10;;;;;;4756975;30;20052;-86
2021/05/06 15:58:01;;;;;;;3.30;2.83;;;17.20;53.10;;;;;;4751763;30;20251;-84
2021/05/06 16:00:27;;;;;;;4.40;3.20;;;17.20;53.10;;;;;;4755139;30;20060;-87
2021/05/06 16:02:59;;;;;;;3.85;3.03;;;17.20;53.00;;;;;;4748545;30;20070;-88
2021/05/06 16:05:26;;;;;;;3.92;3.20;;;17.20;53.00;;;;;;4753175;30;20056;-85
2021/05/06 16:07:53;;;;;;;4.13;3.13;;;17.20;53.00;;;;;;4754949;30;20068;-88
2021/05/06 16:10:23;;;;;;;4.15;3.42;;;17.20;53.00;;;;;;4727117;30;20085;-85
2021/05/06 16:12:49;;;;;;;4.10;3.28;;;17.20;53.00;;;;;;4741578;30;20135;-84
2021/05/06 16:15:15;;;;;;;3.90;3.03;;;17.20;53.00;;;;;;4744122;30;20127;-86
2021/05/06 16:17:41;;;;;;;4.13;3.08;;;17.20;53.10;;;;;;4746223;30;20044;-85